Time;durP1;ratioP1;P1;durP2;ratioP2;P2;SDS_P1;SDS_P2;PMS_P1;PMS_P2;Temp;Humidity;BMP_temperature;BMP_pressure;BME280_temperature;BME280_humidity;BME280_pressure;Samples;Min_cycle;Max_cycle;Signal;HPM_P1;HPM_P2
2021/06/03 00:01:04;;;;;;;11.60;6.95;;;;;;;10.14;49.09;101047.31;153986;1101;103198;-79
2021/06/03 00:04:07;;;;;;;9.60;6.50;;;;;;;10.09;49.16;101057.51;154022;1101;103142;-78
2021/06/03 00:07:13;;;;;;;11.75;6.70;;;;;;;10.06;49.27;101055.09;153954;1101;103192;-79
2021/06/03 00:10:17;;;;;;;9.63;6.60;;;;;;;10.04;48.94;101054.38;153978;1101;103190;-79
2021/06/03 00:13:23;;;;;;;7.98;6.20;;;;;;;10.01;49.25;101058.16;153973;1093;103190;-79
2021/06/03 00:16:33;;;;;;;9.27;6.40;;;;;;;10.00;49.37;101058.28;154015;1101;103282;-77
2021/06/03 00:19:37;;;;;;;9.23;6.33;;;;;;;9.97;49.46;101055.89;153948;1101;103189;-80
2021/06/03 00:22:40;;;;;;;12.43;6.68;;;;;;;9.92;49.34;101063.42;153939;1097;103143;-79
2021/06/03 00:25:44;;;;;;;9.20;6.53;;;;;;;9.87;49.55;101058.45;153987;1101;103192;-80
2021/06/03 00:28:48;;;;;;;8.67;6.37;;;;;;;9.81;49.81;101062.52;153995;1093;103192;-80
2021/06/03 00:31:52;;;;;;;9.25;6.60;;;;;;;9.76;49.69;101055.88;153958;1093;103228;-79
2021/06/03 00:34:55;;;;;;;10.97;8.13;;;;;;;9.68;50.14;101053.84;154308;1101;103195;-81
2021/06/03 00:37:59;;;;;;;10.50;7.48;;;;;;;9.63;49.54;101056.04;153945;1093;103045;-81
2021/06/03 00:41:03;;;;;;;13.87;8.53;;;;;;;9.60;49.84;101057.15;153955;1101;103128;-80
2021/06/03 00:44:07;;;;;;;13.58;8.43;;;;;;;9.63;49.84;101061.37;153955;1093;103132;-82
2021/06/03 00:47:11;;;;;;;13.65;8.00;;;;;;;9.62;49.54;101062.33;153954;1101;103221;-81
2021/06/03 00:50:18;;;;;;;10.28;6.83;;;;;;;9.53;49.90;101065.78;153988;1101;103133;-80
2021/06/03 00:53:28;;;;;;;11.17;7.20;;;;;;;9.47;49.66;101064.46;153915;1093;103187;-78
2021/06/03 00:56:32;;;;;;;10.53;7.03;;;;;;;9.42;49.97;101059.49;153999;1101;103576;-80
2021/06/03 00:59:36;;;;;;;9.48;6.73;;;;;;;9.42;49.83;101059.49;154009;1093;103483;-79
2021/06/03 01:02:40;;;;;;;10.07;6.90;;;;;;;9.38;50.10;101054.55;153982;1101;103275;-78
2021/06/03 01:05:46;;;;;;;9.20;6.60;;;;;;;9.31;50.41;101048.86;154017;1093;103177;-78
2021/06/03 01:08:55;;;;;;;9.08;6.63;;;;;;;9.25;50.16;101057.36;153999;1101;103193;-78
2021/06/03 01:12:08;;;;;;;10.20;7.70;;;;;;;9.21;50.16;101055.92;153990;1095;103131;-78
2021/06/03 01:15:14;;;;;;;9.65;6.90;;;;;;;9.13;50.50;101055.70;154028;1093;103110;-80
2021/06/03 01:18:21;;;;;;;9.77;7.53;;;;;;;9.15;50.36;101062.59;154006;1093;103301;-78
2021/06/03 01:21:30;;;;;;;10.98;6.60;;;;;;;9.12;50.20;101056.66;154004;1101;103182;-78
2021/06/03 01:24:36;;;;;;;9.25;6.75;;;;;;;9.10;50.37;101061.27;153999;1101;103179;-77
2021/06/03 01:27:43;;;;;;;12.40;7.67;;;;;;;9.09;50.94;101068.41;153966;1093;103183;-78
2021/06/03 01:30:52;;;;;;;12.13;7.93;;;;;;;9.10;50.43;101071.91;154015;1093;103200;-78
2021/06/03 01:33:57;;;;;;;9.53;6.75;;;;;;;9.09;50.94;101071.08;154001;1093;103304;-76
2021/06/03 01:37:01;;;;;;;11.58;7.28;;;;;;;9.06;50.49;101073.97;154003;1093;103149;-77
2021/06/03 01:40:09;;;;;;;9.48;6.95;;;;;;;9.11;50.42;101070.96;154058;1101;103232;-78
2021/06/03 01:43:15;;;;;;;9.10;7.05;;;;;;;9.09;51.00;101062.25;153988;1101;103214;-79
2021/06/03 01:46:19;;;;;;;9.68;6.70;;;;;;;9.06;50.99;101076.63;154020;1101;103218;-78
2021/06/03 01:49:24;;;;;;;8.90;7.10;;;;;;;9.02;50.68;101080.52;153947;1093;103272;-77
2021/06/03 01:52:28;;;;;;;10.98;6.75;;;;;;;8.97;50.71;101075.58;154041;1094;103199;-76
2021/06/03 01:55:33;;;;;;;9.33;6.57;;;;;;;8.94;51.34;101074.97;154052;1093;103128;-80
2021/06/03 01:58:37;;;;;;;10.53;6.30;;;;;;;8.91;50.84;101083.19;154022;1101;103190;-80
2021/06/03 02:01:42;;;;;;;8.80;6.50;;;;;;;8.90;50.92;101087.67;154360;1095;103113;-80
2021/06/03 02:04:46;;;;;;;9.77;7.17;;;;;;;8.90;51.01;101087.67;154061;1101;103314;-80
2021/06/03 02:07:50;;;;;;;9.13;6.37;;;;;;;8.91;51.58;101084.05;153963;1101;103144;-78
2021/06/03 02:10:54;;;;;;;8.93;6.07;;;;;;;8.89;51.25;101087.78;153932;1101;103104;-80
2021/06/03 02:14:01;;;;;;;10.13;6.83;;;;;;;8.93;51.07;101087.44;154077;1096;103652;-78
2021/06/03 02:17:19;;;;;;;12.83;8.10;;;;;;;8.93;51.68;101082.11;154056;1096;103130;-81
2021/06/03 02:20:33;;;;;;;12.05;7.70;;;;;;;8.96;51.30;101083.67;154431;1101;103264;-83
2021/06/03 02:23:39;;;;;;;11.23;7.57;;;;;;;8.98;52.00;101085.23;154255;1101;103193;-81
2021/06/03 02:26:45;;;;;;;10.87;7.57;;;;;;;9.01;51.44;101082.34;155136;1101;103539;-82
2021/06/03 02:29:51;;;;;;;10.90;7.37;;;;;;;9.04;51.51;101089.22;153947;1101;103120;-78
2021/06/03 02:33:00;;;;;;;9.70;6.90;;;;;;;9.09;51.48;101083.55;153985;1095;103157;-78
2021/06/03 02:36:06;;;;;;;13.63;8.15;;;;;;;9.02;51.59;101076.03;153984;1096;103123;-80
2021/06/03 02:39:10;;;;;;;9.80;6.88;;;;;;;9.00;51.80;101079.80;154076;1101;103142;-81
2021/06/03 02:42:15;;;;;;;12.48;7.88;;;;;;;9.06;52.28;101084.63;154019;1097;103203;-78
2021/06/03 02:45:24;;;;;;;8.47;6.70;;;;;;;9.10;51.90;101071.91;153943;1101;103224;-80
2021/06/03 02:48:28;;;;;;;10.17;7.47;;;;;;;9.12;52.11;101075.30;153984;1101;103202;-79
2021/06/03 02:51:32;;;;;;;15.15;9.05;;;;;;;9.13;51.86;101079.67;153987;1095;103275;-79
2021/06/03 02:54:37;;;;;;;15.98;9.78;;;;;;;9.07;51.83;101075.68;154000;1093;103183;-79
2021/06/03 02:57:41;;;;;;;14.33;8.53;;;;;;;9.13;52.52;101085.00;153984;1093;103183;-80
2021/06/03 03:00:46;;;;;;;12.65;8.45;;;;;;;9.21;52.57;101078.06;153980;1101;103373;-79
2021/06/03 03:03:51;;;;;;;11.20;7.87;;;;;;;9.31;52.54;101078.16;154054;1093;103133;-78
2021/06/03 03:06:55;;;;;;;13.48;9.28;;;;;;;9.37;52.29;101088.34;153985;1093;103397;-81
2021/06/03 03:09:59;;;;;;;11.47;7.77;;;;;;;9.42;52.74;101095.95;154012;1093;103566;-82
2021/06/03 03:13:03;;;;;;;10.60;7.83;;;;;;;9.47;52.36;101087.56;154092;1093;103198;-77
2021/06/03 03:16:08;;;;;;;10.37;7.37;;;;;;;9.51;52.54;101099.69;153913;1101;103196;-79
2021/06/03 03:19:12;;;;;;;12.33;8.23;;;;;;;9.50;52.67;101092.66;153975;1100;103272;-82
2021/06/03 03:22:16;;;;;;;12.65;7.60;;;;;;;9.54;52.55;101104.75;153973;1093;103177;-79
2021/06/03 03:25:21;;;;;;;11.73;8.23;;;;;;;9.59;52.46;101099.91;153972;1096;103104;-80
2021/06/03 03:28:26;;;;;;;12.78;8.53;;;;;;;9.64;52.88;101100.34;154048;1101;103183;-81
2021/06/03 03:31:30;;;;;;;14.40;9.20;;;;;;;9.70;52.78;101110.53;154011;1101;103477;-80
2021/06/03 03:34:35;;;;;;;12.43;8.37;;;;;;;9.84;53.16;101114.71;153970;1093;103195;-81
2021/06/03 03:37:39;;;;;;;12.53;8.33;;;;;;;10.01;53.18;101100.81;153990;1093;103287;-80
2021/06/03 03:40:44;;;;;;;11.37;8.57;;;;;;;10.23;52.93;101107.84;154233;1093;103147;-84
2021/06/03 03:43:48;;;;;;;10.73;8.20;;;;;;;10.47;53.21;101103.25;154419;1101;103189;-81
2021/06/03 03:46:53;;;;;;;11.87;8.50;;;;;;;10.77;52.99;101102.42;154271;1101;103147;-81
2021/06/03 03:49:58;;;;;;;11.67;8.77;;;;;;;10.96;52.98;101099.84;153964;1101;103142;-78
2021/06/03 03:53:03;;;;;;;11.30;8.63;;;;;;;11.23;53.71;101093.03;154081;1093;103450;-81
2021/06/03 03:56:07;;;;;;;10.27;7.90;;;;;;;11.39;53.46;101096.04;154226;1101;103127;-81
2021/06/03 03:59:12;;;;;;;11.45;7.93;;;;;;;11.48;53.58;101098.86;154022;1093;103176;-79
2021/06/03 04:02:16;;;;;;;10.13;7.57;;;;;;;11.62;53.16;101110.97;153979;1101;103184;-75
2021/06/03 04:05:20;;;;;;;10.23;7.37;;;;;;;11.69;53.33;101099.58;153961;1093;103187;-75
2021/06/03 04:08:24;;;;;;;9.65;7.90;;;;;;;11.74;53.86;101097.34;154006;1101;103269;-75
2021/06/03 04:11:28;;;;;;;14.13;8.57;;;;;;;11.81;53.81;101099.45;154002;1093;103200;-75
2021/06/03 04:14:35;;;;;;;11.18;7.95;;;;;;;11.85;53.85;101106.20;153959;1096;103119;-76
2021/06/03 04:17:40;;;;;;;10.53;7.95;;;;;;;11.94;53.85;101110.74;153906;1097;103130;-80
2021/06/03 04:20:44;;;;;;;11.03;8.40;;;;;;;12.04;53.73;101105.39;153948;1096;103133;-74
2021/06/03 04:23:48;;;;;;;11.63;8.58;;;;;;;11.95;54.01;101107.06;154123;1095;103191;-76
2021/06/03 04:26:52;;;;;;;10.68;8.20;;;;;;;12.03;54.18;101106.36;154069;1101;103213;-80
2021/06/03 04:29:56;;;;;;;10.35;8.25;;;;;;;12.18;53.99;101104.94;154061;1101;103131;-77
2021/06/03 04:33:00;;;;;;;10.70;8.13;;;;;;;12.30;54.02;101111.84;154016;1101;103160;-80
2021/06/03 04:36:05;;;;;;;11.83;8.00;;;;;;;12.46;54.17;101113.92;153997;1101;103198;-80
2021/06/03 04:39:08;;;;;;;13.20;8.85;;;;;;;12.60;54.59;101109.09;154061;1101;103295;-80
2021/06/03 04:42:13;;;;;;;12.30;8.60;;;;;;;12.71;54.69;101111.60;154006;1101;103129;-82
2021/06/03 04:45:17;;;;;;;12.53;8.43;;;;;;;12.82;54.37;101115.91;153924;1097;103105;-78
2021/06/03 04:48:21;;;;;;;11.55;7.85;;;;;;;12.96;54.19;101118.13;153970;1101;103192;-76
2021/06/03 04:51:27;;;;;;;9.70;7.50;;;;;;;13.12;54.63;101114.81;153978;1101;103196;-75
2021/06/03 04:54:30;;;;;;;10.80;8.57;;;;;;;13.25;54.50;101112.63;154100;1101;103194;-76
2021/06/03 04:57:35;;;;;;;10.75;8.70;;;;;;;13.33;54.85;101115.42;154321;1101;103183;-86
2021/06/03 05:00:41;;;;;;;11.68;9.30;;;;;;;13.47;54.54;101118.59;154233;1094;103192;-83
2021/06/03 05:03:45;;;;;;;11.77;9.53;;;;;;;13.52;54.38;101116.31;154211;1093;103198;-83
2021/06/03 05:06:48;;;;;;;12.77;9.30;;;;;;;13.72;54.18;101114.33;154168;1101;103157;-85
2021/06/03 05:09:52;;;;;;;12.28;9.05;;;;;;;13.96;54.51;101120.94;154135;1096;103295;-83
2021/06/03 05:12:57;;;;;;;12.07;10.07;;;;;;;14.10;54.18;101129.27;154174;1093;103183;-85
2021/06/03 05:16:00;;;;;;;10.97;9.43;;;;;;;14.23;54.65;101133.42;154107;1101;103192;-82
2021/06/03 05:19:04;;;;;;;12.30;10.35;;;;;;;14.45;54.53;101132.06;154138;1101;103136;-82
2021/06/03 05:22:08;;;;;;;11.80;9.83;;;;;;;14.65;54.91;101127.38;154168;1101;103131;-79
2021/06/03 05:25:15;;;;;;;13.20;10.55;;;;;;;14.88;54.28;101128.52;154271;1101;103296;-81
2021/06/03 05:28:20;;;;;;;12.47;9.83;;;;;;;15.09;54.26;101129.97;154251;1101;103194;-80
2021/06/03 05:31:23;;;;;;;12.53;9.83;;;;;;;15.24;54.58;101128.34;154150;1101;103096;-85
2021/06/03 05:34:27;;;;;;;14.30;10.60;;;;;;;15.45;54.56;101129.74;154202;1101;103176;-87
2021/06/03 05:37:31;;;;;;;15.23;10.77;;;;;;;15.67;54.19;101139.89;154226;1101;103242;-89
2021/06/03 05:40:35;;;;;;;15.45;11.45;;;;;;;15.85;54.11;101128.19;154446;1093;103326;-83
2021/06/03 05:43:38;;;;;;;14.68;10.58;;;;;;;15.93;53.76;101130.05;154135;1101;103147;-85
2021/06/03 05:46:42;;;;;;;13.77;10.90;;;;;;;16.01;53.73;101125.52;154184;1101;103110;-87
2021/06/03 05:49:47;;;;;;;12.00;9.90;;;;;;;16.28;54.02;101136.95;154362;1101;103203;-83
2021/06/03 05:52:51;;;;;;;14.27;10.50;;;;;;;16.58;53.69;101132.71;154325;1101;103128;-84
2021/06/03 05:55:55;;;;;;;11.77;9.53;;;;;;;16.83;53.17;101130.84;154154;1096;103281;-81
2021/06/03 05:58:58;;;;;;;13.47;10.00;;;;;;;17.08;53.06;101128.90;154308;1096;103200;-81
2021/06/03 06:02:04;;;;;;;10.53;8.83;;;;;;;17.36;53.07;101130.30;154297;1101;103215;-80
2021/06/03 06:08:32;;;;;;;10.57;7.77;;;;;;;17.66;51.04;101118.65;154164;1101;103134;-79
2021/06/03 06:11:38;;;;;;;13.40;9.47;;;;;;;17.65;51.55;101126.95;154215;1096;103223;-81
2021/06/03 06:14:42;;;;;;;10.90;8.63;;;;;;;17.74;51.56;101127.72;154009;1096;103196;-81
2021/06/03 06:17:45;;;;;;;10.40;7.65;;;;;;;17.97;51.60;101125.89;154152;1101;103181;-80
2021/06/03 06:20:49;;;;;;;8.63;7.47;;;;;;;18.18;51.31;101136.02;154164;1094;103314;-79
2021/06/03 06:23:53;;;;;;;11.93;7.73;;;;;;;18.35;51.18;101136.73;154018;1101;103121;-81
2021/06/03 06:26:58;;;;;;;9.93;8.40;;;;;;;18.53;50.56;101140.96;154242;1096;103272;-84
2021/06/03 06:30:04;;;;;;;11.65;8.20;;;;;;;18.67;51.05;101128.48;154081;1101;103164;-84
2021/06/03 06:33:07;;;;;;;11.15;8.10;;;;;;;18.82;50.88;101141.05;154205;1100;103128;-86
2021/06/03 06:36:12;;;;;;;9.85;7.95;;;;;;;18.92;50.52;101138.06;154181;1101;103158;-86
2021/06/03 06:39:17;;;;;;;9.40;7.20;;;;;;;18.98;50.53;101144.59;154262;1096;103200;-87
2021/06/03 06:42:21;;;;;;;12.10;7.63;;;;;;;19.14;50.52;101138.97;154334;1101;103197;-80
2021/06/03 06:45:26;;;;;;;8.48;7.03;;;;;;;19.26;50.36;101141.20;154524;1101;103169;-83
2021/06/03 06:48:30;;;;;;;8.57;7.17;;;;;;;19.37;50.27;101135.31;154102;1101;103148;-84
2021/06/03 06:51:33;;;;;;;10.73;6.53;;;;;;;19.52;50.35;101137.99;154606;1101;103218;-83
2021/06/03 06:54:39;;;;;;;9.13;6.67;;;;;;;19.63;50.23;101134.80;154188;1095;103226;-83
2021/06/03 06:57:43;;;;;;;9.53;6.60;;;;;;;19.69;49.91;101138.58;154177;1101;103203;-80
2021/06/03 07:00:47;;;;;;;10.43;6.17;;;;;;;19.69;48.92;101135.87;154403;1101;103494;-82
2021/06/03 07:03:51;;;;;;;8.40;5.40;;;;;;;19.59;47.98;101147.88;155308;1096;103227;-81
2021/06/03 07:06:55;;;;;;;6.60;4.98;;;;;;;19.50;49.04;101140.88;154215;1101;103242;-82
2021/06/03 07:09:58;;;;;;;7.43;5.77;;;;;;;19.58;48.52;101145.34;154346;1097;103196;-80
2021/06/03 07:13:02;;;;;;;6.47;5.13;;;;;;;19.60;48.57;101141.41;154404;1101;103335;-80
2021/06/03 07:16:06;;;;;;;6.47;4.87;;;;;;;19.66;48.09;101147.10;154262;1096;103032;-82
2021/06/03 07:19:10;;;;;;;12.07;10.20;;;;;;;19.77;48.54;101139.34;154046;1096;103198;-83
2021/06/03 07:22:13;;;;;;;8.98;6.63;;;;;;;19.68;47.58;101136.92;154208;1095;103107;-86
2021/06/03 07:25:20;;;;;;;18.83;15.40;;;;;;;19.69;48.14;101136.73;154273;1101;103234;-78
2021/06/03 07:28:24;;;;;;;12.00;8.23;;;;;;;19.75;47.69;101137.87;154344;1101;103181;-83
2021/06/03 07:31:28;;;;;;;11.95;9.35;;;;;;;19.80;47.88;101143.52;154040;1101;103569;-87
2021/06/03 07:34:32;;;;;;;23.50;18.93;;;;;;;19.85;48.26;101143.80;154156;1096;103133;-85
2021/06/03 07:37:35;;;;;;;82.40;61.03;;;;;;;19.78;47.36;101143.74;154167;1101;103134;-82
2021/06/03 07:40:40;;;;;;;14.77;11.50;;;;;;;19.75;48.01;101145.99;154158;1101;103151;-86
2021/06/03 07:43:44;;;;;;;25.90;16.40;;;;;;;19.79;47.38;101139.16;154129;1101;103387;-83
2021/06/03 07:46:49;;;;;;;27.47;19.40;;;;;;;19.76;47.39;101134.94;154502;1101;103593;-86
2021/06/03 07:49:53;;;;;;;103.43;76.18;;;;;;;19.72;47.32;101133.66;154087;1101;103230;-80
2021/06/03 07:52:57;;;;;;;44.15;33.40;;;;;;;19.72;48.23;101143.66;154038;1095;103600;-81
2021/06/03 07:56:01;;;;;;;15.17;11.90;;;;;;;19.85;48.09;101138.38;154242;1097;103123;-82
2021/06/03 07:59:05;;;;;;;28.18;20.40;;;;;;;20.01;47.98;101137.28;154473;1101;103509;-82
2021/06/03 08:02:09;;;;;;;27.63;19.17;;;;;;;20.16;47.57;101143.47;154131;1101;103206;-83
2021/06/03 08:05:16;;;;;;;11.03;8.13;;;;;;;20.23;46.53;101132.70;154214;1095;103224;-83
2021/06/03 08:08:20;;;;;;;7.68;5.48;;;;;;;20.28;47.09;101141.06;154125;1095;103202;-85
2021/06/03 08:11:24;;;;;;;7.88;4.33;;;;;;;20.40;47.06;101135.98;154061;1096;103117;-83
2021/06/03 08:14:27;;;;;;;4.60;3.50;;;;;;;20.50;46.24;101132.92;154344;1101;103277;-83
2021/06/03 08:17:31;;;;;;;5.65;3.60;;;;;;;20.62;46.67;101136.78;154236;1101;103232;-84
2021/06/03 08:20:37;;;;;;;6.17;3.80;;;;;;;20.70;46.30;101128.48;154391;1097;103165;-81
2021/06/03 08:23:40;;;;;;;8.43;4.90;;;;;;;20.70;44.70;101133.08;154293;1101;103055;-74
2021/06/03 08:26:49;;;;;;;6.78;5.00;;;;;;;20.72;44.46;101129.13;154055;1101;103163;-76
2021/06/03 08:29:53;;;;;;;10.35;7.20;;;;;;;20.78;44.50;101133.78;153964;1093;103280;-75
2021/06/03 08:32:57;;;;;;;7.90;5.83;;;;;;;20.86;44.09;101130.07;153861;1101;103223;-70
2021/06/03 08:36:06;;;;;;;11.13;7.50;;;;;;;20.93;44.00;101132.80;153956;1101;103195;-68
2021/06/03 08:39:11;;;;;;;6.65;4.93;;;;;;;21.01;42.31;101121.78;153870;1101;103212;-68
2021/06/03 08:42:15;;;;;;;6.80;4.83;;;;;;;21.07;43.54;101122.86;153901;1093;103120;-70
2021/06/03 08:45:23;;;;;;;4.60;3.60;;;;;;;21.19;42.90;101123.98;153941;1101;103279;-70
2021/06/03 08:48:27;;;;;;;4.70;3.10;;;;;;;21.28;43.71;101124.63;153866;1101;103148;-74
2021/06/03 08:51:31;;;;;;;4.97;3.57;;;;;;;21.38;43.51;101127.78;153969;1093;103133;-73
2021/06/03 08:54:38;;;;;;;4.83;3.40;;;;;;;21.53;43.71;101123.06;154052;1101;103173;-73
2021/06/03 08:57:41;;;;;;;4.93;3.10;;;;;;;21.83;43.47;101124.63;154052;1093;103193;-72
2021/06/03 09:00:46;;;;;;;2.73;2.10;;;;;;;22.11;41.44;101117.13;153966;1101;103229;-72
2021/06/03 09:03:51;;;;;;;2.53;1.90;;;;;;;22.41;40.93;101118.63;153844;1093;103189;-72
2021/06/03 09:06:55;;;;;;;3.63;2.20;;;;;;;22.62;40.88;101110.22;153835;1101;103190;-70
2021/06/03 09:10:15;;;;;;;4.00;2.50;;;;;;;22.69;40.02;101113.77;153745;1101;103191;-74
2021/06/03 09:13:21;;;;;;;5.40;2.50;;;;;;;22.66;38.80;101108.74;153943;1101;103196;-69
2021/06/03 09:16:28;;;;;;;2.73;2.37;;;;;;;22.81;40.27;101107.68;153817;1101;103359;-69
2021/06/03 09:19:32;;;;;;;3.40;2.40;;;;;;;23.03;39.17;101103.64;153871;1101;103224;-69
2021/06/03 09:22:40;;;;;;;3.00;1.93;;;;;;;23.22;37.44;101101.06;153856;1093;103266;-69
2021/06/03 09:25:44;;;;;;;3.27;1.80;;;;;;;23.36;38.36;101099.94;155255;1101;103098;-70
2021/06/03 09:28:49;;;;;;;2.70;1.80;;;;;;;23.46;37.86;101100.33;153832;1096;103200;-75
2021/06/03 09:31:54;;;;;;;2.25;1.60;;;;;;;23.52;38.15;101096.73;154210;1095;103147;-71
2021/06/03 09:34:57;;;;;;;2.70;1.80;;;;;;;23.63;37.65;101102.52;154072;1101;103189;-70
2021/06/03 09:38:06;;;;;;;2.35;1.70;;;;;;;23.70;38.11;101087.80;153878;1101;103216;-69
2021/06/03 09:41:10;;;;;;;1.90;1.70;;;;;;;23.88;37.30;101094.42;155015;1101;103200;-73
2021/06/03 09:44:17;;;;;;;4.07;1.90;;;;;;;23.86;37.85;101096.53;155158;1101;103184;-70
2021/06/03 09:47:23;;;;;;;3.50;1.73;;;;;;;23.76;36.89;101085.27;154403;1101;103265;-72
2021/06/03 09:50:26;;;;;;;2.53;1.77;;;;;;;23.64;36.91;101104.20;154636;1101;103196;-78
2021/06/03 09:53:50;;;;;;;3.20;2.28;;;;;;;23.64;36.20;101101.48;154091;1101;103191;-75
2021/06/03 09:56:56;;;;;;;3.60;2.27;;;;;;;23.64;36.52;101105.03;154108;1096;103656;-73
2021/06/03 10:00:04;;;;;;;3.33;2.30;;;;;;;23.62;36.66;101111.77;154144;1097;103227;-75
2021/06/03 10:03:15;;;;;;;5.03;2.70;;;;;;;23.57;36.21;101109.68;154372;1096;103048;-74
2021/06/03 10:06:19;;;;;;;3.60;2.50;;;;;;;23.60;36.21;101108.42;154171;1101;103195;-79
2021/06/03 10:09:55;;;;;;;2.87;2.57;;;;;;;23.69;36.36;101096.19;154186;1101;103148;-72
2021/06/03 10:13:04;;;;;;;2.23;1.90;;;;;;;23.80;35.66;101095.52;154072;1097;103496;-74
2021/06/03 10:16:31;;;;;;;4.80;2.20;;;;;;;23.97;35.67;101095.00;154174;1095;103119;-73
2021/06/03 10:19:35;;;;;;;2.50;2.08;;;;;;;24.19;35.47;101096.30;154059;1101;103564;-75
2021/06/03 10:22:41;;;;;;;2.20;2.00;;;;;;;24.38;35.73;101088.14;154053;1101;103200;-76
2021/06/03 10:25:45;;;;;;;2.20;2.00;;;;;;;24.55;35.30;101096.61;154182;1101;103122;-74
2021/06/03 10:28:48;;;;;;;4.33;2.30;;;;;;;24.52;34.96;101097.91;154291;1096;103128;-73
2021/06/03 10:31:52;;;;;;;2.40;2.20;;;;;;;24.42;34.92;101092.08;154030;1101;103122;-74
2021/06/03 10:34:57;;;;;;;2.90;2.30;;;;;;;24.48;34.01;101105.67;154113;1095;103123;-74
2021/06/03 10:38:02;;;;;;;2.63;2.40;;;;;;;24.54;33.99;101098.52;154107;1102;103100;-74
2021/06/03 10:41:09;;;;;;;4.63;2.40;;;;;;;24.67;34.37;101097.52;154082;1096;103128;-74
2021/06/03 10:44:13;;;;;;;2.88;2.23;;;;;;;24.75;33.96;101099.98;154021;1101;103106;-73
2021/06/03 10:47:18;;;;;;;2.83;1.90;;;;;;;24.84;33.22;101101.32;154126;1101;103200;-74
2021/06/03 10:50:25;;;;;;;2.30;1.90;;;;;;;24.89;32.28;101106.13;154083;1096;103184;-73
2021/06/03 10:53:31;;;;;;;2.13;1.90;;;;;;;24.92;33.57;101102.91;154134;1101;103575;-73
2021/06/03 10:56:34;;;;;;;3.15;2.10;;;;;;;25.02;33.27;101095.05;154116;1101;103216;-74
2021/06/03 10:59:38;;;;;;;2.83;2.17;;;;;;;25.14;33.41;101097.84;154460;1093;103112;-71
2021/06/03 11:02:51;;;;;;;3.43;2.20;;;;;;;25.25;33.36;101091.64;154765;1101;103152;-72
2021/06/03 11:06:04;;;;;;;4.37;2.20;;;;;;;25.32;33.17;101086.07;154336;1101;103192;-73
2021/06/03 11:09:08;;;;;;;2.27;1.80;;;;;;;25.37;33.06;101091.69;154325;1096;103136;-73
2021/06/03 11:12:18;;;;;;;1.90;1.80;;;;;;;25.38;32.59;101090.60;154082;1095;103140;-73
2021/06/03 11:15:21;;;;;;;7.57;2.63;;;;;;;25.22;32.99;101091.23;154013;1101;103192;-71
2021/06/03 11:18:43;;;;;;;3.73;2.00;;;;;;;25.08;31.94;101080.47;154011;1094;103125;-70
2021/06/03 11:21:57;;;;;;;2.83;1.98;;;;;;;24.61;32.05;101080.16;154039;1101;103267;-70
2021/06/03 11:25:05;;;;;;;3.17;2.30;;;;;;;24.37;32.56;101079.13;153970;1095;103094;-72
2021/06/03 11:28:23;;;;;;;3.50;2.00;;;;;;;24.28;32.07;101084.02;153825;1095;103128;-71
2021/06/03 11:31:27;;;;;;;2.30;2.10;;;;;;;24.18;32.86;101072.80;154035;1095;103163;-73
2021/06/03 11:34:43;;;;;;;2.10;1.90;;;;;;;24.12;32.33;101073.70;153853;1096;103078;-75
2021/06/03 11:37:51;;;;;;;2.30;2.10;;;;;;;24.02;31.82;101067.88;153938;1096;103384;-71
2021/06/03 11:40:54;;;;;;;43.63;34.50;;;;;;;23.98;31.87;101061.21;154039;1101;103097;-71
2021/06/03 11:44:12;;;;;;;14.15;11.15;;;;;;;24.10;31.99;101054.83;153843;1101;103585;-71
2021/06/03 11:47:15;;;;;;;6.90;5.00;;;;;;;24.41;31.78;101055.79;153764;1101;103117;-72
2021/06/03 11:50:53;;;;;;;4.00;2.63;;;;;;;24.53;29.85;101058.64;153952;1093;103190;-72
2021/06/03 11:53:56;;;;;;;4.33;2.60;;;;;;;24.60;31.30;101062.14;153807;1097;103280;-72
2021/06/03 11:57:14;;;;;;;4.88;2.50;;;;;;;24.75;29.03;101066.37;153876;1101;103117;-70
2021/06/03 12:00:18;;;;;;;3.33;2.20;;;;;;;24.85;30.97;101061.23;153943;1101;103120;-70
2021/06/03 12:03:37;;;;;;;3.30;2.30;;;;;;;24.79;31.02;101057.52;154085;1101;103151;-72
2021/06/03 12:06:43;;;;;;;5.00;2.40;;;;;;;24.57;28.28;101065.30;153972;1097;103487;-71
2021/06/03 12:09:51;;;;;;;2.63;2.00;;;;;;;24.47;30.50;101057.61;156661;1094;103288;-68
2021/06/03 12:12:55;;;;;;;3.20;2.10;;;;;;;24.47;31.01;101051.33;153805;1096;103153;-71
2021/06/03 12:16:00;;;;;;;3.97;2.43;;;;;;;24.38;30.79;101049.95;153870;1101;103213;-72
2021/06/03 12:19:04;;;;;;;3.60;2.73;;;;;;;24.17;30.32;101049.30;153818;1101;103120;-71
2021/06/03 12:22:12;;;;;;;3.28;2.68;;;;;;;24.01;30.86;101045.25;153918;1101;103276;-71
2021/06/03 12:25:16;;;;;;;4.43;3.60;;;;;;;24.01;31.22;101049.88;153847;1101;103216;-71
2021/06/03 12:28:20;;;;;;;3.93;2.97;;;;;;;24.14;31.12;101041.58;153953;1101;103133;-71
2021/06/03 12:31:25;;;;;;;2.30;1.90;;;;;;;24.22;30.58;101041.28;153971;1096;103193;-73
2021/06/03 12:34:31;;;;;;;2.43;2.05;;;;;;;24.21;30.27;101039.64;153836;1101;103118;-72
2021/06/03 12:37:36;;;;;;;4.15;2.23;;;;;;;24.25;31.06;101034.54;153979;1093;103136;-71
2021/06/03 12:40:40;;;;;;;3.15;2.65;;;;;;;24.56;30.79;101035.52;154032;1096;103391;-70
2021/06/03 12:43:45;;;;;;;3.20;2.70;;;;;;;24.84;30.56;101026.80;153984;1093;103214;-71
2021/06/03 12:46:52;;;;;;;2.97;2.50;;;;;;;25.11;30.92;101026.45;154063;1094;103140;-71
2021/06/03 12:50:10;;;;;;;2.20;2.00;;;;;;;25.34;30.68;101021.11;154022;1097;103122;-72
2021/06/03 12:53:16;;;;;;;1.80;1.70;;;;;;;25.60;30.40;101016.33;154061;1094;103171;-70
2021/06/03 12:56:23;;;;;;;2.48;1.80;;;;;;;25.79;30.32;101003.38;153991;1096;103346;-70
2021/06/03 12:59:29;;;;;;;2.97;1.80;;;;;;;25.94;30.14;101005.69;154008;1101;103229;-72
2021/06/03 13:02:33;;;;;;;4.63;2.40;;;;;;;26.00;29.85;101012.94;153977;1101;103196;-71
2021/06/03 13:05:37;;;;;;;2.80;1.80;;;;;;;25.95;29.68;101004.63;154059;1101;103585;-70
2021/06/03 13:08:47;;;;;;;2.50;2.20;;;;;;;25.95;30.09;101007.37;153939;1096;103237;-71
2021/06/03 13:11:51;;;;;;;3.57;2.43;;;;;;;25.93;29.90;101004.04;153870;1093;103265;-70
2021/06/03 13:14:58;;;;;;;2.45;2.00;;;;;;;25.87;29.43;101008.52;153987;1101;103143;-70
2021/06/03 13:18:05;;;;;;;3.63;2.00;;;;;;;25.59;29.12;101006.45;153822;1101;103206;-71
2021/06/03 13:21:14;;;;;;;2.63;2.43;;;;;;;25.34;29.78;101010.17;154042;1093;103192;-70
2021/06/03 13:24:20;;;;;;;3.23;2.10;;;;;;;25.08;29.59;101008.64;154033;1101;103605;-71
2021/06/03 13:27:26;;;;;;;4.38;2.20;;;;;;;24.86;29.49;101002.83;153990;1094;103204;-71
2021/06/03 13:30:32;;;;;;;2.30;2.10;;;;;;;24.61;29.16;101008.39;154072;1097;103203;-72
2021/06/03 13:33:35;;;;;;;2.83;2.50;;;;;;;24.34;28.93;101005.09;154151;1095;103114;-71
2021/06/03 13:36:39;;;;;;;5.40;4.90;;;;;;;24.19;29.80;101006.30;153923;1093;103192;-71
2021/06/03 13:39:46;;;;;;;6.40;5.80;;;;;;;24.26;30.33;100998.05;153922;1101;103509;-71
2021/06/03 13:42:52;;;;;;;3.80;3.50;;;;;;;24.36;29.34;100995.62;153961;1101;103277;-72
2021/06/03 13:45:57;;;;;;;3.70;2.65;;;;;;;24.34;28.74;100992.28;154001;1101;103133;-71
2021/06/03 13:49:01;;;;;;;3.13;2.73;;;;;;;24.40;29.66;100990.55;153908;1096;103195;-73
2021/06/03 13:52:06;;;;;;;3.33;2.57;;;;;;;24.66;29.25;100989.45;153798;1101;103224;-71
2021/06/03 13:55:19;;;;;;;3.13;2.15;;;;;;;24.92;29.08;100990.98;153952;1101;103146;-72
2021/06/03 13:58:38;;;;;;;8.77;7.00;;;;;;;25.14;29.36;100987.77;153992;1101;103211;-71
2021/06/03 14:01:43;;;;;;;6.23;5.40;;;;;;;25.27;28.42;100976.69;154019;1101;103154;-72
2021/06/03 14:04:47;;;;;;;6.30;3.98;;;;;;;25.27;28.04;100982.15;153849;1101;103148;-71